Time;durP1;ratioP1;P1;durP2;ratioP2;P2;SDS_P1;SDS_P2;PMS_P1;PMS_P2;Temp;Humidity;BMP_temperature;BMP_pressure;BME280_temperature;BME280_humidity;BME280_pressure;Samples;Min_cycle;Max_cycle;Signal;HPM_P1;HPM_P2
2022/06/22 00:00:38;;;;;;;;;;;26.50;44.80;;;;;;5022802;28;19915;-76
2022/06/22 00:03:04;;;;;;;;;;;26.50;44.80;;;;;;5038938;28;20486;-75
2022/06/22 00:05:34;;;;;;;;;;;26.50;44.80;;;;;;5039381;28;19963;-77
2022/06/22 00:08:00;;;;;;;;;;;26.50;44.80;;;;;;5038835;28;19944;-76
2022/06/22 00:10:29;;;;;;;;;;;26.50;44.80;;;;;;5039215;28;20287;-76
2022/06/22 00:12:55;;;;;;;;;;;26.50;44.90;;;;;;5022756;28;19916;-77
2022/06/22 00:15:21;;;;;;;;;;;26.50;44.90;;;;;;5039115;28;19908;-76
2022/06/22 00:17:46;;;;;;;;;;;26.50;44.80;;;;;;5056809;28;20007;-76
2022/06/22 00:20:32;;;;;;;;;;;26.40;44.80;;;;;;5022770;28;19909;-76
2022/06/22 00:22:59;;;;;;;;;;;26.40;44.80;;;;;;5056217;28;19953;-76
2022/06/22 00:25:30;;;;;;;;;;;26.40;44.70;;;;;;5039016;28;19909;-76
2022/06/22 00:28:16;;;;;;;;;;;26.40;44.80;;;;;;5056691;28;19915;-76
2022/06/22 00:30:45;;;;;;;;;;;26.40;44.80;;;;;;5038430;28;20019;-76
2022/06/22 00:33:14;;;;;;;;;;;26.40;44.80;;;;;;5022171;28;19909;-76
2022/06/22 00:35:50;;;;;;;;;;;26.40;44.80;;;;;;5022225;28;19909;-76
2022/06/22 00:38:26;;;;;;;;;;;26.40;44.90;;;;;;5021929;28;19931;-77
2022/06/22 00:40:53;;;;;;;;;;;26.40;44.80;;;;;;5056305;28;19909;-76
2022/06/22 00:43:18;;;;;;;;;;;26.40;44.90;;;;;;5038709;28;19909;-76
2022/06/22 00:45:44;;;;;;;;;;;26.40;45.00;;;;;;5038388;28;19916;-77
2022/06/22 00:48:14;;;;;;;;;;;26.40;44.90;;;;;;5038456;28;19935;-76
2022/06/22 00:50:41;;;;;;;;;;;26.40;45.00;;;;;;5021857;28;19912;-75
2022/06/22 00:53:17;;;;;;;;;;;26.30;44.90;;;;;;5021861;28;19908;-76
2022/06/22 00:55:48;;;;;;;;;;;26.30;45.00;;;;;;5038496;28;19976;-76
2022/06/22 00:58:17;;;;;;;;;;;26.30;44.90;;;;;;5038324;28;20451;-75
2022/06/22 01:00:47;;;;;;;;;;;26.30;44.90;;;;;;5037905;28;19919;-76
2022/06/22 01:03:15;;;;;;;;;;;26.30;45.60;;;;;;5055767;28;19920;-76
2022/06/22 01:05:45;;;;;;;;;;;26.30;44.90;;;;;;5038363;28;19916;-76
2022/06/22 01:08:22;;;;;;;;;;;26.30;45.00;;;;;;5038376;28;19951;-76
2022/06/22 01:14:05;;;;;;;;;;;26.30;44.90;;;;;;5049128;28;20059;-76
2022/06/22 01:16:33;;;;;;;;;;;26.30;44.90;;;;;;5055854;28;20364;-76
2022/06/22 01:19:00;;;;;;;;;;;26.30;45.00;;;;;;5037973;28;19916;-76
2022/06/22 01:21:30;;;;;;;;;;;26.30;44.90;;;;;;5038103;28;19913;-76
2022/06/22 01:24:12;;;;;;;;;;;26.30;44.90;;;;;;5037941;28;20054;-76
2022/06/22 01:26:43;;;;;;;;;;;26.30;45.00;;;;;;5037607;28;20393;-76
2022/06/22 01:29:13;;;;;;;;;;;26.30;44.90;;;;;;5021336;28;19909;-76
2022/06/22 01:31:50;;;;;;;;;;;26.30;45.20;;;;;;5055582;28;19909;-76
2022/06/22 01:34:16;;;;;;;;;;;26.30;45.00;;;;;;5038180;28;19909;-76
2022/06/22 01:36:41;;;;;;;;;;;26.20;44.90;;;;;;5037651;28;20035;-76
2022/06/22 01:39:08;;;;;;;;;;;26.20;45.10;;;;;;5037195;28;20360;-76
2022/06/22 01:41:38;;;;;;;;;;;26.20;45.00;;;;;;5037338;28;19913;-77
2022/06/22 01:44:03;;;;;;;;;;;26.20;45.10;;;;;;5037617;28;19913;-76
2022/06/22 01:46:47;;;;;;;;;;;26.20;45.00;;;;;;5055579;28;20364;-77
2022/06/22 01:49:22;;;;;;;;;;;26.20;44.90;;;;;;5055262;28;20013;-76
2022/06/22 01:51:50;;;;;;;;;;;26.20;44.90;;;;;;5020980;28;19909;-76
2022/06/22 01:54:17;;;;;;;;;;;26.30;45.00;;;;;;5021022;28;19908;-76
2022/06/22 01:56:48;;;;;;;;;;;26.20;44.90;;;;;;5020632;28;20380;-76
2022/06/22 01:59:29;;;;;;;;;;;26.20;44.90;;;;;;5037272;28;19978;-76
2022/06/22 02:02:01;;;;;;;;;;;26.20;45.00;;;;;;5054626;28;20395;-76
2022/06/22 02:04:34;;;;;;;;;;;26.20;45.00;;;;;;5036951;28;20281;-76
2022/06/22 02:09:55;;;;;;;;;;;26.20;45.00;;;;;;5061147;28;19916;-76
2022/06/22 02:12:26;;;;;;;;;;;26.20;45.00;;;;;;5019871;28;19923;-76
2022/06/22 02:14:52;;;;;;;;;;;26.20;45.10;;;;;;5044219;28;19909;-76
2022/06/22 02:17:19;;;;;;;;;;;26.20;45.10;;;;;;5036847;28;19908;-76
2022/06/22 02:20:01;;;;;;;;;;;26.20;45.10;;;;;;5036765;28;20356;-76
2022/06/22 02:22:26;;;;;;;;;;;26.10;45.00;;;;;;5020082;28;20003;-76
2022/06/22 02:24:52;;;;;;;;;;;26.10;45.00;;;;;;5020075;28;19952;-76
2022/06/22 02:27:18;;;;;;;;;;;26.10;45.00;;;;;;5020140;28;19909;-76
2022/06/22 02:29:43;;;;;;;;;;;26.10;45.00;;;;;;5036361;28;19919;-76
2022/06/22 02:32:14;;;;;;;;;;;26.10;45.00;;;;;;5054397;28;19909;-76
2022/06/22 02:34:41;;;;;;;;;;;26.10;45.00;;;;;;5036427;28;20384;-76
2022/06/22 02:37:07;;;;;;;;;;;26.10;45.10;;;;;;5036538;28;20287;-76
2022/06/22 02:39:33;;;;;;;;;;;26.10;45.10;;;;;;5036032;28;19954;-75
2022/06/22 02:44:43;;;;;;;;;;;26.10;45.10;;;;;;5039086;28;19963;-76
2022/06/22 02:47:29;;;;;;;;;;;26.00;45.10;;;;;;5036645;28;20280;-76
2022/06/22 02:50:06;;;;;;;;;;;26.00;45.00;;;;;;5036601;28;20324;-75
2022/06/22 02:52:34;;;;;;;;;;;26.00;45.00;;;;;;5035965;28;19909;-76
2022/06/22 02:55:00;;;;;;;;;;;26.00;45.10;;;;;;5036081;28;19944;-76
2022/06/22 02:57:44;;;;;;;;;;;26.00;45.00;;;;;;5054007;28;19908;-76
2022/06/22 03:00:09;;;;;;;;;;;26.00;45.10;;;;;;5036045;28;19908;-76
2022/06/22 03:02:36;;;;;;;;;;;26.00;45.10;;;;;;5036081;28;20356;-76
2022/06/22 03:05:04;;;;;;;;;;;26.00;45.10;;;;;;5035767;28;19924;-76
2022/06/22 03:07:30;;;;;;;;;;;26.00;45.10;;;;;;5035879;28;19909;-75
2022/06/22 03:09:55;;;;;;;;;;;26.00;45.10;;;;;;5053260;28;19947;-75
2022/06/22 03:12:21;;;;;;;;;;;25.90;45.10;;;;;;5019515;28;20248;-75
2022/06/22 03:14:49;;;;;;;;;;;25.90;45.10;;;;;;5019365;28;19909;-76
2022/06/22 03:17:16;;;;;;;;;;;26.00;45.00;;;;;;5035944;28;20285;-76
2022/06/22 03:19:43;;;;;;;;;;;25.90;45.00;;;;;;5035918;28;19996;-76
2022/06/22 03:22:16;;;;;;;;;;;25.90;45.10;;;;;;5019272;28;19913;-76
2022/06/22 03:24:44;;;;;;;;;;;25.90;45.10;;;;;;5035556;28;20007;-76
2022/06/22 03:27:15;;;;;;;;;;;25.90;45.10;;;;;;5035514;28;19909;-76
2022/06/22 03:29:43;;;;;;;;;;;25.90;45.10;;;;;;5035757;28;19916;-76
2022/06/22 03:32:29;;;;;;;;;;;25.90;45.10;;;;;;5035631;28;19916;-76
2022/06/22 03:34:57;;;;;;;;;;;25.90;45.10;;;;;;5052585;28;19913;-76
2022/06/22 03:37:30;;;;;;;;;;;25.90;45.20;;;;;;5035878;28;20291;-77
2022/06/22 03:39:57;;;;;;;;;;;25.90;45.20;;;;;;5034944;28;19909;-76
2022/06/22 03:42:51;;;;;;;;;;;25.90;45.20;;;;;;5053205;28;20015;-75
2022/06/22 03:45:18;;;;;;;;;;;25.90;45.10;;;;;;5036080;28;20337;-76
2022/06/22 03:47:47;;;;;;;;;;;25.90;45.70;;;;;;5035565;28;19913;-76
2022/06/22 03:50:33;;;;;;;;;;;25.90;45.10;;;;;;5053356;28;19962;-76
2022/06/22 03:53:04;;;;;;;;;;;25.90;45.10;;;;;;5035280;28;19909;-76
2022/06/22 03:55:34;;;;;;;;;;;25.80;45.00;;;;;;5018629;28;19943;-77
2022/06/22 03:58:00;;;;;;;;;;;25.80;45.00;;;;;;5035453;28;19912;-76
2022/06/22 04:00:26;;;;;;;;;;;25.80;45.00;;;;;;5019190;28;19963;-76
2022/06/22 04:02:51;;;;;;;;;;;25.80;45.00;;;;;;5035206;28;19944;-76
2022/06/22 04:05:22;;;;;;;;;;;25.80;45.00;;;;;;5018879;28;19928;-75
2022/06/22 04:07:47;;;;;;;;;;;25.80;45.10;;;;;;5035729;28;19908;-76
2022/06/22 04:10:19;;;;;;;;;;;25.80;45.00;;;;;;5035590;28;19920;-76
2022/06/22 04:12:45;;;;;;;;;;;25.80;45.00;;;;;;5019046;28;19916;-76
2022/06/22 04:15:25;;;;;;;;;;;25.70;45.00;;;;;;5035300;28;19991;-77
2022/06/22 04:17:51;;;;;;;;;;;25.70;45.00;;;;;;5035380;28;19909;-75
2022/06/22 04:20:18;;;;;;;;;;;25.70;45.00;;;;;;5018977;28;19913;-76
2022/06/22 04:22:44;;;;;;;;;;;25.70;45.10;;;;;;5035342;28;19917;-76
2022/06/22 04:25:11;;;;;;;;;;;25.70;45.10;;;;;;5035157;28;19909;-76
2022/06/22 04:27:38;;;;;;;;;;;25.70;44.90;;;;;;5053340;28;20399;-75
2022/06/22 04:30:14;;;;;;;;;;;25.80;44.90;;;;;;5035525;28;20011;-76
2022/06/22 04:32:44;;;;;;;;;;;25.70;45.60;;;;;;5018617;28;19916;-76
2022/06/22 04:35:28;;;;;;;;;;;25.80;45.60;;;;;;5035204;28;19908;-76
2022/06/22 04:37:55;;;;;;;;;;;25.70;44.90;;;;;;5037989;28;19961;-76
2022/06/22 04:40:22;;;;;;;;;;;25.70;45.00;;;;;;5021983;28;19913;-76
2022/06/22 04:42:49;;;;;;;;;;;25.70;45.00;;;;;;5021894;28;20466;-76
2022/06/22 04:45:44;;;;;;;;;;;25.70;45.00;;;;;;5038444;28;19963;-76
2022/06/22 04:48:29;;;;;;;;;;;25.70;44.90;;;;;;5021569;28;19909;-76
2022/06/22 04:50:57;;;;;;;;;;;25.70;45.00;;;;;;5042039;28;19916;-76
2022/06/22 04:53:28;;;;;;;;;;;25.70;45.00;;;;;;5022575;28;19925;-76
2022/06/22 04:55:55;;;;;;;;;;;25.60;45.00;;;;;;5055576;28;21185;-76
2022/06/22 04:58:35;;;;;;;;;;;25.70;45.10;;;;;;5021994;28;20007;-77
2022/06/22 05:01:00;;;;;;;;;;;25.60;45.00;;;;;;5056050;28;19909;-75
2022/06/22 05:03:26;;;;;;;;;;;25.60;45.10;;;;;;5034699;28;20296;-76
2022/06/22 05:05:52;;;;;;;;;;;25.60;45.20;;;;;;5018429;28;19936;-77
2022/06/22 05:08:19;;;;;;;;;;;25.60;45.30;;;;;;5034564;28;19910;-76
2022/06/22 05:10:44;;;;;;;;;;;25.60;45.30;;;;;;5018232;28;19909;-76
2022/06/22 05:13:13;;;;;;;;;;;25.60;45.40;;;;;;5036076;28;20258;-76
2022/06/22 05:15:38;;;;;;;;;;;25.60;45.40;;;;;;5034628;28;20391;-76
2022/06/22 05:18:04;;;;;;;;;;;25.60;45.30;;;;;;5034837;28;19921;-76
2022/06/22 05:20:51;;;;;;;;;;;25.60;45.20;;;;;;5018257;28;19910;-76
2022/06/22 05:23:17;;;;;;;;;;;25.60;45.30;;;;;;5017970;28;19913;-76
2022/06/22 05:25:42;;;;;;;;;;;25.60;45.30;;;;;;5035694;28;19916;-75
2022/06/22 05:28:11;;;;;;;;;;;25.60;45.20;;;;;;5018977;28;20387;-76
2022/06/22 05:30:38;;;;;;;;;;;25.50;45.50;;;;;;5018757;28;19925;-77
2022/06/22 05:33:08;;;;;;;;;;;25.50;45.40;;;;;;5035112;28;19921;-77
2022/06/22 05:35:35;;;;;;;;;;;25.50;45.40;;;;;;5018729;28;19913;-76
2022/06/22 05:38:02;;;;;;;;;;;25.50;45.50;;;;;;5033814;28;20007;-76
2022/06/22 05:40:29;;;;;;;;;;;25.50;45.60;;;;;;5034311;28;19937;-76
2022/06/22 05:42:54;;;;;;;;;;;25.40;45.70;;;;;;5017834;28;19955;-76
2022/06/22 05:45:21;;;;;;;;;;;25.50;45.50;;;;;;5035824;28;19909;-76
2022/06/22 05:47:47;;;;;;;;;;;25.40;45.80;;;;;;5016989;28;19913;-77
2022/06/22 05:50:19;;;;;;;;;;;25.40;45.60;;;;;;5018113;28;19909;-76
2022/06/22 05:52:46;;;;;;;;;;;25.40;45.80;;;;;;5034155;28;20341;-76
2022/06/22 05:55:13;;;;;;;;;;;25.40;45.70;;;;;;5033924;28;20276;-76
2022/06/22 05:57:42;;;;;;;;;;;25.40;45.60;;;;;;5033901;28;19913;-76
2022/06/22 06:00:25;;;;;;;;;;;25.40;45.60;;;;;;5017183;28;19948;-76
2022/06/22 06:02:57;;;;;;;;;;;25.40;45.60;;;;;;5033431;28;20385;-76
2022/06/22 06:05:24;;;;;;;;;;;25.50;45.60;;;;;;5036764;28;20318;-77
2022/06/22 06:07:52;;;;;;;;;;;25.40;45.40;;;;;;5054362;28;20292;-76
2022/06/22 06:10:20;;;;;;;;;;;25.50;45.60;;;;;;5054691;28;19909;-77
2022/06/22 06:12:53;;;;;;;;;;;25.40;45.50;;;;;;5037033;28;19909;-77
2022/06/22 06:15:19;;;;;;;;;;;25.40;45.60;;;;;;5036993;28;19909;-76
2022/06/22 06:17:45;;;;;;;;;;;25.40;45.50;;;;;;5036494;28;20292;-76
2022/06/22 06:20:31;;;;;;;;;;;25.40;45.40;;;;;;5036734;28;19930;-77
2022/06/22 06:22:58;;;;;;;;;;;25.40;45.60;;;;;;5053616;28;19912;-76
2022/06/22 06:28:11;;;;;;;;;;;25.40;45.70;;;;;;5039092;28;20233;-76
2022/06/22 06:30:44;;;;;;;;;;;25.40;45.80;;;;;;5020160;28;19915;-76
2022/06/22 06:33:18;;;;;;;;;;;25.40;45.60;;;;;;5054189;28;19916;-76
2022/06/22 06:35:55;;;;;;;;;;;25.40;45.70;;;;;;5036410;28;20381;-76
2022/06/22 06:38:27;;;;;;;;;;;25.40;45.90;;;;;;5035915;28;20043;-76
2022/06/22 06:41:04;;;;;;;;;;;25.40;45.90;;;;;;5036970;28;19915;-77
2022/06/22 06:43:48;;;;;;;;;;;25.40;45.70;;;;;;5036123;28;19919;-77
2022/06/22 06:46:22;;;;;;;;;;;25.40;45.80;;;;;;5036203;28;19912;-76
2022/06/22 06:49:07;;;;;;;;;;;25.40;46.00;;;;;;5019669;28;20279;-76
2022/06/22 06:51:33;;;;;;;;;;;25.40;45.80;;;;;;5039656;28;20319;-76
2022/06/22 06:54:02;;;;;;;;;;;25.40;45.90;;;;;;5036457;28;19909;-76
2022/06/22 06:56:35;;;;;;;;;;;25.40;45.90;;;;;;5036438;28;19923;-76
2022/06/22 06:59:05;;;;;;;;;;;25.40;45.70;;;;;;5019274;28;19919;-77
2022/06/22 07:01:32;;;;;;;;;;;25.40;46.40;;;;;;5053964;28;19913;-76
2022/06/22 07:04:02;;;;;;;;;;;25.40;45.70;;;;;;5035951;28;20020;-76
2022/06/22 07:06:28;;;;;;;;;;;25.50;45.60;;;;;;5020803;28;20433;-77
2022/06/22 07:08:58;;;;;;;;;;;25.50;45.70;;;;;;5019558;28;19935;-76
2022/06/22 07:11:37;;;;;;;;;;;25.50;45.80;;;;;;5019675;28;19909;-76
2022/06/22 07:14:05;;;;;;;;;;;25.40;45.80;;;;;;5035807;28;19915;-77
2022/06/22 07:16:30;;;;;;;;;;;25.50;45.70;;;;;;5019416;28;19909;-76
2022/06/22 07:19:01;;;;;;;;;;;25.50;45.70;;;;;;5035588;28;19909;-76
2022/06/22 07:21:36;;;;;;;;;;;25.50;45.70;;;;;;5035699;28;20000;-76
2022/06/22 07:24:11;;;;;;;;;;;25.50;45.60;;;;;;5053623;28;20335;-76
2022/06/22 07:26:36;;;;;;;;;;;25.50;45.70;;;;;;5035631;28;19924;-76
2022/06/22 07:29:04;;;;;;;;;;;25.50;45.50;;;;;;5053370;28;19915;-76
2022/06/22 07:31:48;;;;;;;;;;;25.50;45.40;;;;;;5035585;28;19908;-76
2022/06/22 07:34:13;;;;;;;;;;;25.60;45.40;;;;;;5054038;28;19966;-76
2022/06/22 07:36:41;;;;;;;;;;;25.60;45.20;;;;;;5035855;28;19908;-76
2022/06/22 07:39:15;;;;;;;;;;;25.60;45.20;;;;;;5035241;28;19912;-76
2022/06/22 07:41:40;;;;;;;;;;;25.60;45.20;;;;;;5019177;28;20019;-76
2022/06/22 07:44:13;;;;;;;;;;;25.70;45.20;;;;;;5035564;28;20007;-76
2022/06/22 07:46:40;;;;;;;;;;;25.70;45.10;;;;;;5035611;28;19935;-77
2022/06/22 07:49:07;;;;;;;;;;;25.70;45.10;;;;;;5035629;28;20008;-77
2022/06/22 07:51:33;;;;;;;;;;;25.70;45.10;;;;;;5019010;28;19908;-76
2022/06/22 07:54:01;;;;;;;;;;;25.70;45.10;;;;;;5035523;28;19995;-76
2022/06/22 07:56:29;;;;;;;;;;;25.70;45.00;;;;;;5035566;28;20265;-76
2022/06/22 07:59:00;;;;;;;;;;;25.70;45.00;;;;;;5053314;28;19909;-76
2022/06/22 08:01:29;;;;;;;;;;;25.70;45.10;;;;;;5018881;28;19916;-76
2022/06/22 08:04:02;;;;;;;;;;;25.70;45.10;;;;;;5035092;28;20024;-76
2022/06/22 08:06:41;;;;;;;;;;;25.70;45.30;;;;;;5053456;28;19912;-77
2022/06/22 08:09:23;;;;;;;;;;;25.70;45.30;;;;;;5018413;28;19967;-77
2022/06/22 08:11:50;;;;;;;;;;;25.70;45.40;;;;;;5038020;28;19909;-76
2022/06/22 08:14:21;;;;;;;;;;;25.80;45.60;;;;;;5038824;28;19915;-76
2022/06/22 08:16:51;;;;;;;;;;;25.70;45.50;;;;;;5039211;28;19909;-76
2022/06/22 08:19:17;;;;;;;;;;;25.70;45.50;;;;;;5039047;28;19958;-76
2022/06/22 08:21:47;;;;;;;;;;;25.70;45.60;;;;;;5038845;28;20328;-77
2022/06/22 08:24:13;;;;;;;;;;;25.70;45.60;;;;;;5039383;28;19908;-76
2022/06/22 08:26:39;;;;;;;;;;;25.70;45.80;;;;;;5038904;28;20296;-76
2022/06/22 08:29:04;;;;;;;;;;;25.70;45.80;;;;;;5022204;28;19909;-77
2022/06/22 08:31:30;;;;;;;;;;;25.60;45.90;;;;;;5022367;28;20346;-77
2022/06/22 08:33:59;;;;;;;;;;;25.60;45.90;;;;;;5022320;28;20007;-77
2022/06/22 08:36:38;;;;;;;;;;;25.70;46.00;;;;;;5039226;28;19978;-76
2022/06/22 08:39:04;;;;;;;;;;;25.70;45.90;;;;;;5021737;28;19947;-77
2022/06/22 08:41:33;;;;;;;;;;;25.70;45.90;;;;;;5056345;28;19944;-76
2022/06/22 08:43:58;;;;;;;;;;;25.70;45.90;;;;;;5056344;28;19916;-77
2022/06/22 08:46:24;;;;;;;;;;;25.70;45.80;;;;;;5056634;28;19912;-75
2022/06/22 08:48:52;;;;;;;;;;;25.70;45.80;;;;;;5056286;28;20015;-76
2022/06/22 08:51:36;;;;;;;;;;;25.80;45.80;;;;;;5056298;28;20273;-77
2022/06/22 08:54:09;;;;;;;;;;;25.80;45.80;;;;;;5038244;28;19915;-76
2022/06/22 08:56:35;;;;;;;;;;;25.80;45.70;;;;;;5021844;28;19909;-76
2022/06/22 08:59:09;;;;;;;;;;;25.80;45.80;;;;;;5056403;28;19962;-76
2022/06/22 09:01:44;;;;;;;;;;;25.80;45.70;;;;;;5056165;28;20014;-76
2022/06/22 09:04:15;;;;;;;;;;;25.80;45.80;;;;;;5055827;28;19920;-76
2022/06/22 09:06:50;;;;;;;;;;;25.90;45.80;;;;;;5056228;28;19912;-76
2022/06/22 09:09:23;;;;;;;;;;;25.90;45.80;;;;;;5055708;28;19916;-76
2022/06/22 09:11:55;;;;;;;;;;;25.90;45.70;;;;;;5021423;28;19963;-76
2022/06/22 09:14:24;;;;;;;;;;;25.90;45.70;;;;;;5038087;28;19908;-75
2022/06/22 09:16:56;;;;;;;;;;;25.90;45.70;;;;;;5055856;28;19909;-76
2022/06/22 09:19:35;;;;;;;;;;;25.90;45.70;;;;;;5038489;28;19909;-76
2022/06/22 09:22:01;;;;;;;;;;;25.90;45.60;;;;;;5038277;28;19917;-76
2022/06/22 09:24:45;;;;;;;;;;;25.90;45.60;;;;;;5021447;28;19909;-77
2022/06/22 09:27:16;;;;;;;;;;;25.90;45.60;;;;;;5055731;28;19978;-76
2022/06/22 09:29:56;;;;;;;;;;;25.90;46.30;;;;;;5038155;28;19908;-76
2022/06/22 09:32:22;;;;;;;;;;;25.90;45.70;;;;;;5055747;28;19908;-77
2022/06/22 09:34:57;;;;;;;;;;;26.00;45.60;;;;;;5055844;28;20399;-76
2022/06/22 09:37:26;;;;;;;;;;;25.90;45.60;;;;;;5021164;28;20443;-77
2022/06/22 09:39:57;;;;;;;;;;;25.90;45.60;;;;;;5054935;28;19909;-77
2022/06/22 09:42:25;;;;;;;;;;;25.90;45.80;;;;;;5055488;28;20364;-76
2022/06/22 09:44:58;;;;;;;;;;;25.90;45.80;;;;;;5037205;28;20430;-76
2022/06/22 09:47:43;;;;;;;;;;;25.90;45.70;;;;;;5037494;28;19920;-76
2022/06/22 09:50:20;;;;;;;;;;;25.90;45.70;;;;;;5037377;28;19932;-76
2022/06/22 09:53:05;;;;;;;;;;;25.90;45.70;;;;;;5020756;28;19915;-77
2022/06/22 09:58:41;;;;;;;;;;;25.90;45.70;;;;;;5062113;28;20008;-77
2022/06/22 10:01:09;;;;;;;;;;;26.00;45.80;;;;;;5037403;28;20345;-76
2022/06/22 10:03:44;;;;;;;;;;;26.00;45.80;;;;;;5033742;28;19917;-77
2022/06/22 10:06:14;;;;;;;;;;;26.00;45.70;;;;;;5033966;28;19909;-76
2022/06/22 10:08:42;;;;;;;;;;;26.00;45.80;;;;;;5016800;28;19909;-77
2022/06/22 10:11:27;;;;;;;;;;;26.00;45.80;;;;;;5017079;28;19916;-76
2022/06/22 10:13:58;;;;;;;;;;;26.00;45.80;;;;;;5033579;28;20258;-78
2022/06/22 10:16:31;;;;;;;;;;;26.00;45.80;;;;;;5034038;28;20333;-77
2022/06/22 10:18:59;;;;;;;;;;;26.00;45.80;;;;;;5033851;28;20523;-76
2022/06/22 10:21:31;;;;;;;;;;;26.00;45.80;;;;;;5035037;28;20327;-75
2022/06/22 10:24:02;;;;;;;;;;;26.00;45.70;;;;;;5017028;28;20262;-76
2022/06/22 10:26:27;;;;;;;;;;;26.10;45.70;;;;;;5017149;28;19913;-75
2022/06/22 10:28:56;;;;;;;;;;;26.00;45.70;;;;;;5034888;28;19961;-75
2022/06/22 10:31:39;;;;;;;;;;;26.00;45.70;;;;;;5035013;28;19916;-76
2022/06/22 10:34:25;;;;;;;;;;;26.10;45.80;;;;;;5032978;28;19999;-76
2022/06/22 10:36:54;;;;;;;;;;;26.10;45.80;;;;;;5040195;28;20372;-76
2022/06/22 10:39:26;;;;;;;;;;;26.10;45.80;;;;;;5033098;28;19916;-76
2022/06/22 10:45:09;;;;;;;;;;;26.10;45.70;;;;;;5033540;28;19979;-76
2022/06/22 10:47:35;;;;;;;;;;;26.10;45.80;;;;;;5034460;28;20345;-76
2022/06/22 10:50:03;;;;;;;;;;;26.10;45.80;;;;;;5034624;28;19948;-76
2022/06/22 10:52:47;;;;;;;;;;;26.10;45.80;;;;;;5034535;28;19909;-77
2022/06/22 10:55:19;;;;;;;;;;;26.10;45.80;;;;;;5033032;28;20442;-76
2022/06/22 10:57:53;;;;;;;;;;;26.10;45.80;;;;;;5016396;28;19964;-77
2022/06/22 11:00:22;;;;;;;;;;;26.10;45.80;;;;;;5034027;28;19991;-75
2022/06/22 11:02:47;;;;;;;;;;;26.20;45.80;;;;;;5016149;28;19913;-76
2022/06/22 11:05:25;;;;;;;;;;;26.20;45.80;;;;;;5032567;28;19921;-76
2022/06/22 11:08:09;;;;;;;;;;;26.20;45.80;;;;;;5033951;28;19916;-76
2022/06/22 11:11:04;;;;;;;;;;;26.20;45.70;;;;;;5033027;28;19913;-76
2022/06/22 11:13:43;;;;;;;;;;;26.20;45.70;;;;;;4964300;28;20287;-76
2022/06/22 11:16:22;;;;;;;;;;;26.20;45.80;;;;;;5016100;28;20352;-75
2022/06/22 11:19:01;;;;;;;;;;;26.20;45.80;;;;;;5032689;28;19916;-75
2022/06/22 11:21:48;;;;;;;;;;;26.20;45.80;;;;;;5016167;28;19955;-76
2022/06/22 11:24:22;;;;;;;;;;;26.20;45.80;;;;;;5016454;28;19910;-75
2022/06/22 11:32:39;;;;;;;;;;;26.20;45.80;;;;;;5033754;28;19932;-76
2022/06/22 11:35:16;;;;;;;;;;;26.30;45.90;;;;;;5033978;28;19913;-76
2022/06/22 11:38:05;;;;;;;;;;;26.30;45.80;;;;;;5015616;28;20324;-76
2022/06/22 11:40:49;;;;;;;;;;;26.30;45.80;;;;;;4995701;28;19910;-77
2022/06/22 11:43:27;;;;;;;;;;;26.30;45.80;;;;;;5033630;28;19917;-76
2022/06/22 11:46:00;;;;;;;;;;;26.30;45.80;;;;;;5033147;28;20011;-76
2022/06/22 11:48:44;;;;;;;;;;;26.30;45.80;;;;;;5020033;28;19932;-76
2022/06/22 11:51:28;;;;;;;;;;;26.30;45.80;;;;;;5043074;28;19932;-75
2022/06/22 11:53:53;;;;;;;;;;;26.30;45.80;;;;;;5036408;28;19909;-75
2022/06/22 11:56:22;;;;;;;;;;;26.40;45.90;;;;;;5038050;28;20440;-76
2022/06/22 11:58:52;;;;;;;;;;;26.40;45.90;;;;;;5036132;28;19955;-77
2022/06/22 12:01:30;;;;;;;;;;;26.40;45.80;;;;;;5019559;28;19913;-75
2022/06/22 12:04:02;;;;;;;;;;;26.40;45.90;;;;;;5045322;28;20007;-76
2022/06/22 12:06:36;;;;;;;;;;;26.40;45.90;;;;;;5039512;28;20024;-76
2022/06/22 12:09:08;;;;;;;;;;;26.40;45.90;;;;;;5022752;28;19948;-76
2022/06/22 12:11:52;;;;;;;;;;;26.40;45.80;;;;;;5057588;28;19959;-75
2022/06/22 12:17:09;;;;;;;;;;;26.50;45.80;;;;;;5042626;28;20283;-75
2022/06/22 12:19:35;;;;;;;;;;;26.50;45.80;;;;;;5057953;28;19999;-76
2022/06/22 12:22:14;;;;;;;;;;;26.50;45.80;;;;;;5057484;28;19999;-76
2022/06/22 12:24:51;;;;;;;;;;;26.50;45.70;;;;;;5039827;28;19909;-77
2022/06/22 12:27:20;;;;;;;;;;;26.60;45.70;;;;;;5039272;28;19919;-76
2022/06/22 12:30:09;;;;;;;;;;;26.60;45.60;;;;;;5039139;28;20426;-76
2022/06/22 12:32:36;;;;;;;;;;;26.60;45.70;;;;;;5028650;28;19994;-80
2022/06/22 12:35:05;;;;;;;;;;;26.60;45.60;;;;;;5022507;28;19952;-76
2022/06/22 12:37:41;;;;;;;;;;;26.70;45.50;;;;;;5023262;28;20046;-75
2022/06/22 12:40:25;;;;;;;;;;;26.70;45.30;;;;;;5038937;28;19959;-76
2022/06/22 12:42:59;;;;;;;;;;;26.80;45.20;;;;;;5038517;28;19912;-76
2022/06/22 12:45:43;;;;;;;;;;;26.80;45.30;;;;;;5057406;28;19917;-76
2022/06/22 12:48:27;;;;;;;;;;;26.80;45.20;;;;;;5022953;28;20276;-77
2022/06/22 12:51:10;;;;;;;;;;;26.80;45.30;;;;;;5039298;28;19931;-77
2022/06/22 12:53:41;;;;;;;;;;;26.90;45.30;;;;;;5022353;28;19909;-76
2022/06/22 12:56:10;;;;;;;;;;;27.00;45.30;;;;;;5038821;28;19924;-76
2022/06/22 12:58:55;;;;;;;;;;;27.00;45.10;;;;;;5038990;28;19916;-76
2022/06/22 13:01:21;;;;;;;;;;;27.00;45.10;;;;;;5038436;28;20356;-76
2022/06/22 13:03:48;;;;;;;;;;;27.00;45.10;;;;;;5039014;28;19939;-76
2022/06/22 13:06:14;;;;;;;;;;;27.00;45.00;;;;;;5057165;28;19909;-76
2022/06/22 13:08:39;;;;;;;;;;;27.00;45.10;;;;;;5022271;28;19915;-76
2022/06/22 13:11:06;;;;;;;;;;;27.10;45.10;;;;;;5038987;28;19913;-76
2022/06/22 13:13:35;;;;;;;;;;;27.10;45.10;;;;;;5038791;28;20253;-76
2022/06/22 13:16:18;;;;;;;;;;;27.10;45.00;;;;;;5039025;28;20391;-76
2022/06/22 13:18:53;;;;;;;;;;;27.10;44.90;;;;;;5038770;28;20031;-76
2022/06/22 13:21:37;;;;;;;;;;;27.10;45.00;;;;;;5038584;28;19916;-77
2022/06/22 13:24:06;;;;;;;;;;;27.10;44.90;;;;;;5038471;28;20292;-76
2022/06/22 13:26:35;;;;;;;;;;;27.20;45.00;;;;;;5056193;28;20008;-76
2022/06/22 13:29:29;;;;;;;;;;;27.10;44.90;;;;;;5038350;28;19935;-76
2022/06/22 13:31:57;;;;;;;;;;;27.20;44.90;;;;;;5020635;28;19912;-77
2022/06/22 13:34:24;;;;;;;;;;;27.20;44.90;;;;;;5038279;28;19948;-77
2022/06/22 13:36:50;;;;;;;;;;;27.20;44.80;;;;;;5021805;28;19909;-76
2022/06/22 13:39:34;;;;;;;;;;;27.20;44.90;;;;;;5056047;28;20043;-76
2022/06/22 13:42:14;;;;;;;;;;;27.20;44.90;;;;;;5056127;28;19912;-75
2022/06/22 13:44:45;;;;;;;;;;;27.20;44.90;;;;;;5021528;28;19908;-76
2022/06/22 13:47:11;;;;;;;;;;;27.30;44.90;;;;;;5038281;28;19909;-76
2022/06/22 13:49:43;;;;;;;;;;;27.30;44.90;;;;;;5037915;28;20394;-76
2022/06/22 13:52:19;;;;;;;;;;;27.30;44.80;;;;;;5021639;28;19958;-76
2022/06/22 13:54:52;;;;;;;;;;;27.30;44.80;;;;;;5038366;28;19919;-76
2022/06/22 13:57:18;;;;;;;;;;;27.30;44.80;;;;;;5037879;28;19908;-76
2022/06/22 14:00:00;;;;;;;;;;;27.30;44.80;;;;;;5038093;28;19908;-76
2022/06/22 14:02:25;;;;;;;;;;;27.40;44.90;;;;;;5037494;28;19912;-76
2022/06/22 14:04:56;;;;;;;;;;;27.30;44.80;;;;;;5055179;28;19917;-76
2022/06/22 14:07:24;;;;;;;;;;;27.40;44.80;;;;;;5021501;28;20373;-76
2022/06/22 14:09:51;;;;;;;;;;;27.40;44.80;;;;;;5036908;28;19962;-76
2022/06/22 14:12:25;;;;;;;;;;;27.40;44.80;;;;;;5055668;28;19916;-75
2022/06/22 14:15:19;;;;;;;;;;;27.40;44.80;;;;;;5021562;28;19939;-76
2022/06/22 14:17:45;;;;;;;;;;;27.40;44.80;;;;;;5037800;28;19912;-76
2022/06/22 14:20:16;;;;;;;;;;;27.40;44.70;;;;;;5037894;28;19952;-76
2022/06/22 14:22:46;;;;;;;;;;;27.50;44.80;;;;;;5055698;28;20299;-78
2022/06/22 14:25:16;;;;;;;;;;;27.50;44.80;;;;;;5021490;28;19996;-76
2022/06/22 14:28:08;;;;;;;;;;;27.50;44.70;;;;;;5021597;28;19909;-76
2022/06/22 14:30:36;;;;;;;;;;;27.50;44.70;;;;;;5051219;28;20431;-76
2022/06/22 14:33:20;;;;;;;;;;;27.50;44.80;;;;;;5055605;28;19908;-76
2022/06/22 14:35:49;;;;;;;;;;;27.50;44.80;;;;;;5021502;28;19991;-75
2022/06/22 14:38:16;;;;;;;;;;;27.50;44.80;;;;;;5020533;28;20379;-76
2022/06/22 14:40:45;;;;;;;;;;;27.50;44.80;;;;;;5037135;28;20402;-76
2022/06/22 14:43:16;;;;;;;;;;;27.50;44.90;;;;;;5037675;28;20015;-75
2022/06/22 14:45:46;;;;;;;;;;;27.50;44.90;;;;;;5055176;28;20000;-76
2022/06/22 14:48:30;;;;;;;;;;;27.50;44.90;;;;;;5020403;28;19916;-76
2022/06/22 14:50:57;;;;;;;;;;;27.50;45.00;;;;;;5036899;28;19909;-75
2022/06/22 14:53:51;;;;;;;;;;;27.50;45.10;;;;;;5036906;28;20318;-75
2022/06/22 14:56:19;;;;;;;;;;;27.50;45.10;;;;;;5036536;28;19963;-75
2022/06/22 14:59:04;;;;;;;;;;;27.50;45.10;;;;;;5036489;28;20293;-77
2022/06/22 15:01:29;;;;;;;;;;;27.50;45.10;;;;;;5036334;28;19909;-76
2022/06/22 15:03:57;;;;;;;;;;;27.50;45.10;;;;;;5032841;28;19987;-76
2022/06/22 15:06:41;;;;;;;;;;;27.50;45.20;;;;;;5016977;28;20288;-76
2022/06/22 15:09:12;;;;;;;;;;;27.50;45.20;;;;;;5032771;28;19909;-77